Terminal Aerodrome Forecast
Issued by NWS

Home | Current Version | Previous Version | Text Only | Print | Product List | Glossary On
Versions: 1 2 3 4 5 6 7 8 9 10 11 12 13 14 15
697
FTUS44 KTSA 231120
TAFMLC
TAF
KMLC 231120Z 2312/2412 00000KT P6SM SCT250
     FM231600 VRB04KT P6SM SCT025 BKN035
      TEMPO 2322/2324 4SM -TSRA BKN015CB
     FM240000 02009KT P6SM VCTS BKN035CB PROB30 2400/2404 4SM -TSRA
      BR BKN025CB
     FM240600 01006KT P6SM BKN250=

USA.gov is the U.S. government's official web portal to all federal, state and local government web resources and services.